createdAt,value
2019-05-12T00:50:28.616Z,1000.23
2019-05-12T01:08:19.877Z,1000.45
2019-05-12T01:09:19.891Z,1000.45
2019-05-12T01:10:19.819Z,1000.45
2019-05-12T01:11:20.513Z,1000.49
2019-05-12T01:12:19.729Z,1000.50
2019-05-12T01:13:19.698Z,1000.50
2019-05-12T01:14:19.700Z,1000.53
2019-05-12T01:15:19.511Z,1000.56
2019-05-12T01:16:19.264Z,1000.55
2019-05-12T01:17:19.254Z,1000.53
2019-05-12T01:18:19.198Z,1000.51
2019-05-12T01:19:19.177Z,1000.50
2019-05-12T01:20:19.144Z,1000.48
2019-05-12T01:21:19.127Z,1000.51
2019-05-12T01:22:19.119Z,1000.50
2019-05-12T01:23:23.053Z,1000.51
2019-05-12T01:24:19.083Z,1000.52
2019-05-12T01:25:19.086Z,1000.55
2019-05-12T01:26:19.043Z,1000.57
2019-05-12T01:27:19.054Z,1000.57
2019-05-12T01:28:19.011Z,1000.63
2019-05-12T01:29:18.972Z,1000.62
2019-05-12T01:30:18.995Z,1000.66
2019-05-12T01:31:18.981Z,1000.67
2019-05-12T01:32:18.931Z,1000.68
2019-05-12T01:33:18.893Z,1000.64
2019-05-12T01:34:18.882Z,1000.69
2019-05-12T01:35:18.881Z,1000.69
2019-05-12T01:36:18.839Z,1000.74
2019-05-12T01:37:18.840Z,1000.70
2019-05-12T01:38:18.795Z,1000.70
2019-05-12T01:39:18.921Z,1000.75
2019-05-12T01:40:19.138Z,1000.74
2019-05-12T01:41:18.762Z,1000.76
2019-05-12T01:42:18.723Z,1000.78
2019-05-12T01:43:21.225Z,1000.83
2019-05-12T01:44:18.682Z,1000.78
2019-05-12T01:45:18.678Z,1000.81
2019-05-12T01:46:18.668Z,1000.83
2019-05-12T01:47:18.871Z,1000.83
2019-05-12T01:48:18.616Z,1000.83
2019-05-12T01:49:18.834Z,1000.90
2019-05-12T01:50:18.594Z,1000.88
2019-05-12T01:51:18.569Z,1000.86
2019-05-12T01:52:18.544Z,1000.87
2019-05-12T01:53:18.515Z,1000.94
2019-05-12T01:54:18.966Z,1000.95
2019-05-12T01:55:18.693Z,1000.94
2019-05-12T01:56:18.462Z,1000.97
2019-05-12T01:57:18.924Z,1001.05
2019-05-12T01:58:19.400Z,1001.03
2019-05-12T01:59:18.601Z,1001.07
2019-05-12T02:00:18.401Z,1001.08
2019-05-12T02:01:18.528Z,1001.11
2019-05-12T02:02:18.342Z,1001.11
2019-05-12T02:03:18.341Z,1001.14
2019-05-12T02:04:18.318Z,1001.12
2019-05-12T02:05:18.411Z,1001.16
2019-05-12T02:06:18.533Z,1001.18
2019-05-12T02:07:18.586Z,1001.20
2019-05-12T02:08:18.566Z,1001.25
2019-05-12T02:09:18.660Z,1001.20
2019-05-12T02:10:18.198Z,1001.23
2019-05-12T02:11:18.468Z,1001.25
2019-05-12T02:12:18.297Z,1001.28
2019-05-12T02:13:18.326Z,1001.30
2019-05-12T02:14:18.407Z,1001.31
2019-05-12T02:15:18.448Z,1001.33
2019-05-12T02:16:18.827Z,1001.35
2019-05-12T02:17:18.072Z,1001.37
2019-05-12T02:18:18.054Z,1001.39
2019-05-12T02:19:18.021Z,1001.41
2019-05-12T02:20:18.216Z,1001.36
2019-05-12T02:21:18.840Z,1001.41
2019-05-12T02:22:18.946Z,1001.40
2019-05-12T02:23:17.969Z,1001.44
2019-05-12T02:24:26.679Z,1001.46
2019-05-12T02:25:18.621Z,1001.47
2019-05-12T02:26:18.956Z,1001.45
2019-05-12T02:27:17.948Z,1001.48
2019-05-12T02:28:18.094Z,1001.52
2019-05-12T02:29:18.413Z,1001.51
2019-05-12T02:30:20.337Z,1001.50
2019-05-12T02:31:20.599Z,1001.52
2019-05-12T02:32:17.798Z,1001.54
2019-05-12T02:36:15.079Z,1001.61
2019-05-12T02:37:15.317Z,1001.61
2019-05-12T02:38:14.433Z,1001.64
2019-05-12T02:39:14.837Z,1001.64
2019-05-12T03:11:35.523Z,1002.12
2019-05-12T03:12:34.483Z,1002.15
2019-05-12T03:57:16.814Z,1002.86
2019-05-12T03:58:16.860Z,1002.88
2019-05-12T03:59:16.855Z,1002.92
2019-05-12T04:00:16.861Z,1002.91
2019-05-12T04:01:16.785Z,1002.89
2019-05-12T04:05:38.269Z,1003.00
2019-05-12T04:17:18.725Z,1003.24
2019-05-12T04:28:45.554Z,1003.43
2019-05-12T04:34:06.893Z,1003.59
2019-05-12T04:35:06.602Z,1003.59
2019-05-12T04:36:06.318Z,1003.64
2019-05-12T04:37:06.091Z,1003.62
2019-05-12T04:38:06.102Z,1003.65
2019-05-12T04:39:06.147Z,1003.71
2019-05-12T04:40:06.072Z,1003.77
2019-05-12T04:41:06.260Z,1003.73
2019-05-12T04:42:05.943Z,1003.75
2019-05-12T04:43:06.798Z,1003.76
2019-05-12T04:44:06.370Z,1003.80
2019-05-12T04:45:06.029Z,1003.78
2019-05-12T04:48:27.886Z,1003.86
2019-05-12T04:49:28.220Z,1003.86
2019-05-12T05:59:50.398Z,1005.06
2019-05-12T06:00:54.819Z,1005.07
2019-05-12T06:03:48.092Z,1005.10
2019-05-12T06:04:49.801Z,1005.10
2019-05-12T06:05:48.047Z,1005.10
2019-05-12T06:06:50.478Z,1005.11
2019-05-12T06:07:47.987Z,1005.11
2019-05-12T06:08:48.015Z,1005.11
2019-05-12T06:09:47.928Z,1005.09
2019-05-12T06:10:47.900Z,1005.11
2019-05-12T06:11:47.905Z,1005.13
2019-05-12T06:12:50.838Z,1005.17
2019-05-12T06:13:47.858Z,1005.17
2019-05-12T06:14:54.342Z,1005.18
2019-05-12T06:15:47.845Z,1005.25
2019-05-12T06:16:47.827Z,1005.17
2019-05-12T06:17:47.775Z,1005.24
2019-05-12T06:18:47.767Z,1005.25
2019-05-12T06:19:47.833Z,1005.29
2019-05-12T06:20:47.724Z,1005.28
2019-05-12T06:21:47.727Z,1005.34
2019-05-12T06:22:48.558Z,1005.31
2019-05-12T06:23:47.671Z,1005.37
2019-05-12T06:24:49.194Z,1005.34
2019-05-12T06:33:44.814Z,1005.51
2019-05-12T06:34:44.508Z,1005.52
2019-05-12T07:00:35.567Z,1005.71
2019-05-12T07:01:35.398Z,1005.74
2019-05-12T07:02:44.578Z,1005.74
2019-05-12T07:03:37.155Z,1005.71
2019-05-12T07:04:35.290Z,1005.75
2019-05-12T07:05:38.392Z,1005.74
2019-05-12T07:06:34.886Z,1005.76
2019-05-12T07:07:41.880Z,1005.77
2019-05-12T07:08:38.319Z,1005.81
2019-05-12T07:09:39.780Z,1005.86
2019-05-12T07:10:42.995Z,1005.86
2019-05-12T07:11:42.567Z,1005.86
2019-05-12T07:12:43.598Z,1005.85
2019-05-12T07:13:34.762Z,1005.86
2019-05-12T07:14:34.784Z,1005.91
2019-05-12T07:15:39.863Z,1005.92
2019-05-12T07:16:34.750Z,1005.91
2019-05-12T07:17:35.678Z,1005.95
2019-05-12T07:18:37.113Z,1005.99
2019-05-12T07:19:34.730Z,1006.00
2019-05-12T07:20:38.749Z,1006.00
2019-05-12T07:21:34.650Z,1006.03
2019-05-12T07:22:43.572Z,1006.02
2019-05-12T07:23:34.615Z,1006.03
2019-05-12T07:24:34.585Z,1006.10
2019-05-12T07:25:36.791Z,1006.08
2019-05-12T07:26:34.531Z,1006.10
2019-05-12T07:27:39.361Z,1006.13
2019-05-12T07:28:36.229Z,1006.13
2019-05-12T07:29:34.506Z,1006.15
2019-05-12T07:30:35.317Z,1006.13
2019-05-12T07:31:34.451Z,1006.17
2019-05-12T07:32:34.480Z,1006.17
2019-05-12T07:33:41.375Z,1006.21
2019-05-12T07:34:34.415Z,1006.25
2019-05-12T07:35:34.434Z,1006.25
2019-05-12T07:36:34.397Z,1006.30
2019-05-12T07:37:34.360Z,1006.25
2019-05-12T07:38:34.445Z,1006.30
2019-05-12T07:39:39.295Z,1006.31
2019-05-12T07:40:37.376Z,1006.32
2019-05-12T07:41:34.359Z,1006.33
2019-05-12T08:23:18.351Z,1006.84
2019-05-12T08:24:18.277Z,1006.81
2019-05-12T08:28:15.470Z,1006.91
2019-05-12T08:29:10.511Z,1006.88
2019-05-12T08:31:40.352Z,1006.91
2019-05-12T08:32:35.983Z,1006.90
2019-05-12T08:34:40.546Z,1006.94
2019-05-12T08:35:40.521Z,1006.95
2019-05-12T08:37:46.125Z,1006.95
2019-05-12T08:38:46.095Z,1006.97
2019-05-12T08:40:45.346Z,1006.97
2019-05-12T08:41:39.675Z,1007.01
2019-05-12T08:43:47.135Z,1007.02
2019-05-12T08:44:44.353Z,1007.06
2019-05-12T08:45:44.558Z,1007.04
2019-05-12T08:46:51.963Z,1007.12
2019-05-12T08:47:44.284Z,1007.10
2019-05-12T08:48:44.708Z,1007.11
2019-05-12T08:49:51.008Z,1007.17
2019-05-12T08:50:46.156Z,1007.17
2019-05-12T08:51:44.348Z,1007.23
2019-05-12T08:52:44.466Z,1007.20
2019-05-12T08:53:44.178Z,1007.22
2019-05-12T08:54:47.669Z,1007.20
2019-05-12T08:55:44.143Z,1007.23
2019-05-12T08:56:44.126Z,1007.24
2019-05-12T08:57:49.433Z,1007.27
2019-05-12T08:58:51.099Z,1007.23
2019-05-12T08:59:44.232Z,1007.28
2019-05-12T09:00:49.696Z,1007.30
2019-05-12T09:01:44.048Z,1007.31
2019-05-12T09:02:48.735Z,1007.32
2019-05-12T09:03:44.388Z,1007.41
2019-05-12T09:04:51.541Z,1007.40
2019-05-12T09:05:44.557Z,1007.47
2019-05-12T09:06:43.962Z,1007.40
2019-05-12T09:07:43.951Z,1007.43
2019-05-12T09:08:49.048Z,1007.45
2019-05-12T09:09:44.030Z,1007.46
2019-05-12T09:10:45.193Z,1007.49
2019-05-12T09:11:44.170Z,1007.47
2019-05-12T09:12:44.212Z,1007.45
2019-05-12T09:13:44.106Z,1007.54
2019-05-12T09:14:46.106Z,1007.51
2019-05-12T09:15:43.988Z,1007.49
2019-05-12T09:16:44.045Z,1007.53
2019-05-12T09:17:52.674Z,1007.57
2019-05-12T09:18:43.777Z,1007.58
2019-05-12T09:19:43.781Z,1007.62
2019-05-12T09:20:48.716Z,1007.55
2019-05-12T09:21:44.353Z,1007.64
2019-05-12T09:22:43.715Z,1007.62
2019-05-12T09:23:45.660Z,1007.58
2019-05-12T09:24:44.140Z,1007.64
2019-05-12T09:25:46.818Z,1007.64
2019-05-12T09:26:43.662Z,1007.58
2019-05-12T09:27:48.055Z,1007.60
2019-05-12T09:28:49.863Z,1007.61
2019-05-12T09:29:43.671Z,1007.62
2019-05-12T09:30:45.869Z,1007.62
2019-05-12T09:31:44.027Z,1007.63
2019-05-12T09:32:48.249Z,1007.63
2019-05-12T09:33:44.569Z,1007.59
2019-05-12T09:34:46.882Z,1007.60
2019-05-12T09:35:43.944Z,1007.60
2019-05-12T09:36:44.244Z,1007.59
2019-05-12T09:37:44.128Z,1007.60
2019-05-12T09:38:43.998Z,1007.62
2019-05-12T09:39:47.411Z,1007.58
2019-05-12T09:40:43.886Z,1007.62
2019-05-12T09:41:49.465Z,1007.62
2019-05-12T09:42:44.085Z,1007.61
2019-05-12T09:43:48.915Z,1007.64
2019-05-12T09:44:43.894Z,1007.68
2019-05-12T09:45:51.635Z,1007.68
2019-05-12T09:46:44.003Z,1007.63
2019-05-12T09:47:43.744Z,1007.64
2019-05-12T09:48:51.901Z,1007.63
2019-05-12T09:49:44.438Z,1007.69
2019-05-12T09:50:46.245Z,1007.65
2019-05-12T09:51:45.926Z,1007.71
2019-05-12T09:52:44.128Z,1007.71
2019-05-12T09:53:51.024Z,1007.69
2019-05-12T09:54:44.460Z,1007.64
2019-05-12T09:55:43.898Z,1007.67
2019-05-12T09:56:44.123Z,1007.67
2019-05-12T09:57:45.134Z,1007.71
2019-05-12T09:58:43.711Z,1007.69
2019-05-12T09:59:45.905Z,1007.68
2019-05-12T10:00:43.505Z,1007.66
2019-05-12T10:01:45.945Z,1007.71
2019-05-12T10:02:43.684Z,1007.71
2019-05-12T10:03:43.727Z,1007.76
2019-05-12T10:04:43.762Z,1007.76
2019-05-12T10:05:44.178Z,1007.73
2019-05-12T10:06:44.421Z,1007.75
2019-05-12T10:07:44.548Z,1007.68
2019-05-12T10:08:43.569Z,1007.73
2019-05-12T10:09:44.012Z,1007.71
2019-05-12T10:10:46.733Z,1007.68
2019-05-12T10:11:44.736Z,1007.69
2019-05-12T10:12:46.460Z,1007.63
2019-05-12T10:13:44.960Z,1007.57
2019-05-12T10:14:45.875Z,1007.56
2019-05-12T10:15:43.088Z,1007.60
2019-05-12T10:16:45.708Z,1007.62
2019-05-12T10:17:43.509Z,1007.62
2019-05-12T10:18:51.025Z,1007.61
2019-05-12T10:19:43.464Z,1007.63
2019-05-12T10:20:44.055Z,1007.68
2019-05-12T10:21:43.993Z,1007.70
2019-05-12T10:22:43.747Z,1007.72
2019-05-12T10:23:43.614Z,1007.70
2019-05-12T10:24:54.632Z,1007.75
2019-05-12T10:25:44.717Z,1007.75
2019-05-12T10:26:48.749Z,1007.69
2019-05-12T10:27:44.334Z,1007.75
2019-05-12T10:28:51.515Z,1007.71
2019-05-12T10:29:43.691Z,1007.70
2019-05-12T10:30:47.185Z,1007.71
2019-05-12T10:31:44.516Z,1007.72
2019-05-12T10:32:43.598Z,1007.66
2019-05-12T10:33:43.359Z,1007.64
2019-05-12T10:34:44.367Z,1007.67
2019-05-12T10:35:43.912Z,1007.67
2019-05-12T10:36:44.902Z,1007.72
2019-05-12T10:37:43.706Z,1007.68
2019-05-12T10:38:43.435Z,1007.74
2019-05-12T10:39:42.884Z,1007.71
2019-05-12T10:40:44.435Z,1007.77
2019-05-12T10:41:43.692Z,1007.81
2019-05-12T10:42:46.115Z,1007.76
2019-05-12T10:43:43.397Z,1007.75
2019-05-12T10:44:43.730Z,1007.73
2019-05-12T10:45:44.182Z,1007.72
2019-05-12T10:46:42.829Z,1007.69
2019-05-12T10:47:42.827Z,1007.76
2019-05-12T10:48:44.321Z,1007.73
2019-05-12T10:49:44.150Z,1007.79
2019-05-12T10:50:44.317Z,1007.79
2019-05-12T10:51:44.140Z,1007.79
2019-05-12T10:52:44.003Z,1007.85
2019-05-12T10:53:43.257Z,1007.86
2019-05-12T10:54:43.450Z,1007.88
2019-05-12T10:55:44.062Z,1007.90
2019-05-12T10:56:43.833Z,1007.86
2019-05-12T10:57:43.895Z,1007.90
2019-05-12T10:58:43.980Z,1007.87
2019-05-12T10:59:45.264Z,1007.90
2019-05-12T11:00:44.379Z,1007.88
2019-05-12T11:01:47.229Z,1007.86
2019-05-12T11:02:42.716Z,1007.88
2019-05-12T11:03:50.660Z,1007.84
2019-05-12T11:04:43.977Z,1007.87
2019-05-12T11:05:44.088Z,1007.87
2019-05-12T11:06:44.741Z,1007.89
2019-05-12T11:07:43.580Z,1007.86
2019-05-12T11:08:47.400Z,1007.85
2019-05-12T11:09:43.942Z,1007.83
2019-05-12T11:10:42.684Z,1007.88
2019-05-12T11:11:46.773Z,1007.90
2019-05-12T11:12:44.187Z,1007.90
2019-05-12T11:13:48.609Z,1007.87
2019-05-12T11:14:43.884Z,1007.84
2019-05-12T11:15:47.771Z,1007.84
2019-05-12T11:16:44.587Z,1007.72
2019-05-12T11:17:46.066Z,1007.76
2019-05-12T11:18:43.720Z,1007.78
2019-05-12T11:19:47.109Z,1007.78
2019-05-12T11:20:44.854Z,1007.81
2019-05-12T11:21:44.337Z,1007.81
2019-05-12T11:22:43.902Z,1007.83
2019-05-12T11:23:43.637Z,1007.82
2019-05-12T11:24:44.441Z,1007.81
2019-05-12T11:25:43.977Z,1007.84
2019-05-12T11:26:43.245Z,1007.86
2019-05-12T11:27:43.685Z,1007.84
2019-05-12T11:28:42.568Z,1007.86
2019-05-12T11:29:48.593Z,1007.80
2019-05-12T11:30:43.637Z,1007.87
2019-05-12T11:31:44.098Z,1007.89
2019-05-12T11:32:44.203Z,1007.98
2019-05-12T11:33:43.611Z,1007.93
2019-05-12T11:34:44.373Z,1007.85
2019-05-12T11:35:43.507Z,1007.83
2019-05-12T11:36:43.768Z,1007.85
2019-05-12T11:37:42.529Z,1007.88
2019-05-12T11:38:44.352Z,1007.85
2019-05-12T11:39:45.251Z,1007.84
2019-05-12T11:40:43.721Z,1007.92
2019-05-12T11:41:44.231Z,1007.89
2019-05-12T11:42:46.837Z,1007.94
2019-05-12T11:43:42.497Z,1008.03
2019-05-12T11:44:44.308Z,1007.99
2019-05-12T11:45:44.222Z,1008.00
2019-05-12T11:46:44.126Z,1008.01
2019-05-12T11:47:44.642Z,1007.92
2019-05-12T11:48:46.311Z,1008.00
2019-05-12T11:49:44.164Z,1007.97
2019-05-12T11:50:49.504Z,1007.95
2019-05-12T11:51:42.510Z,1007.96
2019-05-12T11:52:46.057Z,1007.96
2019-05-12T11:53:44.548Z,1007.99
2019-05-12T11:54:47.186Z,1008.02
2019-05-12T11:55:43.814Z,1008.05
2019-05-12T11:56:46.613Z,1008.02
2019-05-12T11:57:43.774Z,1008.06
2019-05-12T11:58:47.415Z,1008.06
2019-05-12T11:59:43.451Z,1008.09
2019-05-12T12:00:44.127Z,1008.11
2019-05-12T12:01:47.435Z,1008.12
2019-05-12T12:02:43.741Z,1008.12
2019-05-12T12:03:44.047Z,1008.07
2019-05-12T12:04:43.518Z,1008.11
2019-05-12T12:05:44.278Z,1008.12
2019-05-12T12:06:43.807Z,1008.10
2019-05-12T12:07:49.072Z,1008.12
2019-05-12T12:08:44.169Z,1008.11
2019-05-12T12:09:43.852Z,1008.07
2019-05-12T12:10:42.443Z,1008.09
2019-05-12T12:11:43.339Z,1008.13
2019-05-12T12:12:45.305Z,1008.11
2019-05-12T12:13:42.457Z,1008.11
2019-05-12T12:14:46.240Z,1008.08
2019-05-12T12:15:42.449Z,1008.11
2019-05-12T12:16:50.199Z,1008.10
2019-05-12T12:17:44.149Z,1008.04
2019-05-12T12:18:48.610Z,1008.02
2019-05-12T12:19:46.701Z,1008.09
2019-05-12T12:20:44.263Z,1008.07
2019-05-12T12:21:48.054Z,1008.07
2019-05-12T12:22:43.434Z,1008.10
2019-05-12T12:23:48.817Z,1008.10
2019-05-12T12:24:43.644Z,1008.10
2019-05-12T12:25:43.079Z,1008.13
2019-05-12T12:26:44.590Z,1008.08
2019-05-12T12:27:44.249Z,1008.09
2019-05-12T12:28:43.499Z,1008.07
2019-05-12T12:29:43.861Z,1008.16
2019-05-12T12:30:47.471Z,1008.13
2019-05-12T12:31:43.394Z,1008.16
2019-05-12T12:32:44.353Z,1008.12
2019-05-12T12:33:46.867Z,1008.14
2019-05-12T12:34:44.047Z,1008.13
2019-05-12T12:35:44.352Z,1008.09
2019-05-12T12:36:43.564Z,1008.11
2019-05-12T12:37:44.838Z,1008.05
2019-05-12T12:38:43.984Z,1008.01
2019-05-12T12:39:43.473Z,1008.02
2019-05-12T12:40:44.186Z,1008.05
2019-05-12T12:41:45.669Z,1008.06
2019-05-12T12:42:47.050Z,1008.06
2019-05-12T12:43:43.267Z,1008.06
2019-05-12T12:44:42.482Z,1008.07
2019-05-12T12:45:43.449Z,1008.07
2019-05-12T12:46:44.061Z,1008.08
2019-05-12T12:47:44.407Z,1008.09
2019-05-12T12:48:43.946Z,1008.11
2019-05-12T12:49:47.570Z,1008.07
2019-05-12T12:50:44.409Z,1008.09
2019-05-12T12:51:43.561Z,1008.09
2019-05-12T12:52:44.801Z,1008.07
2019-05-12T12:53:43.769Z,1008.14
2019-05-12T12:54:43.852Z,1008.14
2019-05-12T12:55:43.716Z,1008.08
2019-05-12T12:56:42.523Z,1008.13
2019-05-12T12:57:46.467Z,1008.13
2019-05-12T12:58:43.977Z,1008.12
2019-05-12T12:59:50.997Z,1008.10
2019-05-12T13:00:47.397Z,1008.12
2019-05-12T13:01:44.275Z,1008.14
2019-05-12T13:02:45.080Z,1008.16
2019-05-12T13:03:43.496Z,1008.12
2019-05-12T13:04:46.050Z,1008.15
2019-05-12T13:05:43.896Z,1008.09
2019-05-12T13:06:43.777Z,1008.12
2019-05-12T13:07:43.949Z,1008.09
2019-05-12T13:08:43.414Z,1008.08
2019-05-12T13:09:44.107Z,1008.08
2019-05-12T13:10:47.222Z,1008.08
2019-05-12T13:11:44.450Z,1008.10
2019-05-12T13:12:43.706Z,1008.18
2019-05-12T13:13:42.590Z,1008.15
2019-05-12T13:14:44.333Z,1008.16
2019-05-12T13:15:44.408Z,1008.16
2019-05-12T13:16:43.715Z,1008.13
2019-05-12T13:17:44.739Z,1008.14
2019-05-12T13:18:43.505Z,1008.15
2019-05-12T13:19:43.684Z,1008.13
2019-05-12T13:20:43.591Z,1008.16
2019-05-12T13:21:43.938Z,1008.20
2019-05-12T13:22:44.403Z,1008.20
2019-05-12T13:23:45.269Z,1008.22
2019-05-12T13:24:43.956Z,1008.19
2019-05-12T13:25:48.372Z,1008.17
2019-05-12T13:26:43.550Z,1008.20
2019-05-12T13:27:42.633Z,1008.14
2019-05-12T13:28:45.528Z,1008.12
2019-05-12T13:29:42.642Z,1008.14
2019-05-12T13:30:47.176Z,1008.07
2019-05-12T13:31:46.479Z,1008.10
2019-05-12T13:32:44.190Z,1008.09
2019-05-12T13:33:44.248Z,1008.13
2019-05-12T13:34:43.024Z,1008.09
2019-05-12T13:35:43.484Z,1008.10
2019-05-12T13:36:44.010Z,1008.11
2019-05-12T13:37:43.287Z,1008.07
2019-05-12T13:38:44.292Z,1008.07
2019-05-12T13:39:55.174Z,1008.09
2019-05-12T13:40:44.198Z,1008.07
2019-05-12T13:41:43.778Z,1008.09
2019-05-12T13:42:43.782Z,1008.00
2019-05-12T13:43:42.688Z,1008.02
2019-05-12T13:44:43.615Z,1008.06
2019-05-12T13:45:43.968Z,1008.08
2019-05-12T13:46:43.757Z,1008.07
2019-05-12T13:47:43.976Z,1008.07
2019-05-12T13:48:43.399Z,1008.07
2019-05-12T13:49:47.272Z,1008.10
2019-05-12T13:50:43.308Z,1008.08
2019-05-12T13:51:42.965Z,1008.02
2019-05-12T13:52:42.716Z,1008.03
2019-05-12T13:53:46.513Z,1008.00
2019-05-12T13:54:43.703Z,1007.99
2019-05-12T13:55:47.546Z,1008.01
2019-05-12T13:56:44.348Z,1008.00
2019-05-12T13:57:52.323Z,1008.01
2019-05-12T13:58:45.703Z,1008.03
2019-05-12T13:59:43.493Z,1008.07
2019-05-12T14:00:50.910Z,1008.03
2019-05-12T14:01:45.505Z,1008.09
2019-05-12T14:02:44.232Z,1008.01
2019-05-12T14:03:48.674Z,1007.97
2019-05-12T14:04:44.425Z,1007.98
2019-05-12T14:05:50.546Z,1007.96
2019-05-12T14:06:42.763Z,1007.99
2019-05-12T14:07:43.681Z,1007.98
2019-05-12T14:08:44.511Z,1008.00
2019-05-12T14:09:43.726Z,1007.96
2019-05-12T14:10:44.755Z,1007.96
2019-05-12T14:11:43.754Z,1007.99
2019-05-12T14:12:43.887Z,1007.98
2019-05-12T14:13:42.793Z,1007.93
2019-05-12T14:14:43.688Z,1008.02
2019-05-12T14:15:44.349Z,1008.01
2019-05-12T14:16:44.647Z,1007.98
2019-05-12T14:17:43.583Z,1008.02
2019-05-12T14:18:44.165Z,1008.03
2019-05-12T14:19:43.769Z,1007.99
2019-05-12T14:20:44.872Z,1008.00
2019-05-12T14:21:42.795Z,1007.97
2019-05-12T14:22:44.757Z,1008.07
2019-05-12T14:23:43.664Z,1008.03
2019-05-12T14:24:46.734Z,1007.99
2019-05-12T14:25:43.741Z,1007.99
2019-05-12T14:26:47.537Z,1008.00
2019-05-12T14:27:44.321Z,1008.00
2019-05-12T14:28:45.516Z,1007.98
2019-05-12T14:29:44.098Z,1008.00
2019-05-12T14:30:47.370Z,1007.99
2019-05-12T14:31:51.060Z,1007.96
2019-05-12T14:32:44.058Z,1008.00
2019-05-12T14:33:44.214Z,1007.97
2019-05-12T14:34:43.398Z,1007.96
2019-05-12T14:35:45.311Z,1007.95
2019-05-12T14:36:43.310Z,1007.96
2019-05-12T14:37:45.830Z,1007.95
2019-05-12T14:38:42.801Z,1007.98
2019-05-12T14:39:46.220Z,1007.92
2019-05-12T14:40:42.817Z,1007.95
2019-05-12T14:41:52.834Z,1007.94
2019-05-12T14:42:44.236Z,1007.92
2019-05-12T14:43:47.523Z,1007.99
2019-05-12T14:44:44.963Z,1008.00
2019-05-12T14:45:44.011Z,1008.02
2019-05-12T14:46:46.356Z,1008.04
2019-05-12T14:47:43.678Z,1008.03
2019-05-12T14:48:46.454Z,1008.05
2019-05-12T14:49:43.594Z,1008.03
2019-05-12T14:50:44.153Z,1007.99
2019-05-12T14:51:44.270Z,1007.95
2019-05-12T14:52:43.990Z,1007.95
2019-05-12T14:53:46.065Z,1007.96
2019-05-12T14:54:43.558Z,1007.94
2019-05-12T14:55:42.805Z,1007.97
2019-05-12T14:56:47.147Z,1007.99
2019-05-12T14:57:42.792Z,1007.96
2019-05-12T14:58:44.205Z,1007.95
2019-05-12T14:59:42.797Z,1007.92
2019-05-12T15:00:44.560Z,1007.92
2019-05-12T15:01:56.918Z,1007.89
2019-05-12T15:02:43.737Z,1007.89
2019-05-12T15:03:47.814Z,1007.90
2019-05-12T15:04:43.581Z,1007.89
2019-05-12T15:05:47.381Z,1007.92
2019-05-12T15:06:44.343Z,1007.89
2019-05-12T15:07:51.198Z,1007.93
2019-05-12T15:08:43.642Z,1007.98
2019-05-12T15:09:42.766Z,1007.96
2019-05-12T15:10:42.784Z,1007.95
2019-05-12T15:11:43.744Z,1007.88
2019-05-12T15:12:44.140Z,1007.90
2019-05-12T15:13:43.696Z,1007.88
2019-05-12T15:14:43.853Z,1007.90
2019-05-12T15:15:44.060Z,1007.89
2019-05-12T15:16:44.784Z,1007.92
2019-05-12T15:17:44.379Z,1007.95
2019-05-12T15:18:46.812Z,1007.94
2019-05-12T15:19:44.057Z,1007.94
2019-05-12T15:20:49.975Z,1008.00
2019-05-12T15:21:43.691Z,1007.96
2019-05-12T15:22:51.247Z,1008.01
2019-05-12T15:23:44.125Z,1008.02
2019-05-12T15:24:44.135Z,1007.94
2019-05-12T15:25:43.312Z,1007.97
2019-05-12T15:26:42.685Z,1008.00
2019-05-12T15:27:46.052Z,1007.99
2019-05-12T15:28:43.412Z,1008.01
2019-05-12T15:29:43.145Z,1008.00
2019-05-12T15:30:43.640Z,1008.00
2019-05-12T15:31:53.127Z,1008.00
2019-05-12T15:32:42.649Z,1008.00
2019-05-12T15:33:43.965Z,1008.06
2019-05-12T15:34:44.153Z,1008.06
2019-05-12T15:35:43.915Z,1008.07
2019-05-12T15:36:45.902Z,1008.08
2019-05-12T15:37:43.707Z,1008.05
2019-05-12T15:38:43.703Z,1008.05
2019-05-12T15:39:44.034Z,1008.07
2019-05-12T15:40:43.397Z,1008.06
2019-05-12T15:41:42.589Z,1008.07
2019-05-12T15:42:44.969Z,1008.02
2019-05-12T15:43:44.418Z,1008.07
2019-05-12T15:44:43.339Z,1008.09
2019-05-12T15:45:43.644Z,1008.04
2019-05-12T15:46:46.002Z,1008.03
2019-05-12T15:47:44.556Z,1008.02
2019-05-12T15:48:44.498Z,1008.03
2019-05-12T15:49:44.269Z,1007.96
2019-05-12T15:50:45.553Z,1007.97
2019-05-12T15:51:53.117Z,1008.04
2019-05-12T15:52:45.394Z,1008.02
2019-05-12T15:53:44.557Z,1008.05
2019-05-12T15:54:47.188Z,1008.14
2019-05-12T15:55:43.474Z,1008.09
2019-05-12T15:56:42.410Z,1008.09
2019-05-12T15:57:44.015Z,1008.13
2019-05-12T15:58:44.159Z,1008.17
2019-05-12T15:59:43.495Z,1008.08
2019-05-12T16:00:43.857Z,1008.12
2019-05-12T16:01:43.916Z,1008.11
2019-05-12T16:02:44.258Z,1008.13
2019-05-12T16:03:43.834Z,1008.17
2019-05-12T16:04:44.545Z,1008.15
2019-05-12T16:05:44.374Z,1008.21
2019-05-12T16:06:52.615Z,1008.22
2019-05-12T16:07:43.639Z,1008.23
2019-05-12T16:08:42.272Z,1008.23
2019-05-12T16:09:45.385Z,1008.24
2019-05-12T16:10:42.244Z,1008.26
2019-05-12T16:11:42.236Z,1008.28
2019-05-12T16:12:43.422Z,1008.22
2019-05-12T16:13:44.909Z,1008.25
2019-05-12T16:14:44.108Z,1008.26
2019-05-12T16:15:43.835Z,1008.27
2019-05-12T16:16:42.881Z,1008.24
2019-05-12T16:17:44.075Z,1008.28
2019-05-12T16:18:46.685Z,1008.30
2019-05-12T16:19:43.819Z,1008.26
2019-05-12T16:20:44.203Z,1008.26
2019-05-12T16:21:45.338Z,1008.26
2019-05-12T16:22:44.896Z,1008.29
2019-05-12T16:23:44.515Z,1008.28
2019-05-12T16:24:43.285Z,1008.28
2019-05-12T16:25:42.054Z,1008.34
2019-05-12T16:26:45.368Z,1008.31
2019-05-12T16:27:44.185Z,1008.29
2019-05-12T16:28:44.005Z,1008.28
2019-05-12T16:29:45.554Z,1008.24
2019-05-12T16:30:43.901Z,1008.29
2019-05-12T16:31:45.597Z,1008.21
2019-05-12T16:32:46.974Z,1008.26
2019-05-12T16:33:43.645Z,1008.25
2019-05-12T16:34:44.930Z,1008.26
2019-05-12T16:35:44.117Z,1008.23
2019-05-12T16:36:47.476Z,1008.23
2019-05-12T16:37:43.987Z,1008.24
2019-05-12T16:38:44.364Z,1008.27
2019-05-12T16:39:46.869Z,1008.29
2019-05-12T16:40:45.549Z,1008.29
2019-05-12T16:41:43.863Z,1008.34
2019-05-12T16:42:48.303Z,1008.34
2019-05-12T16:43:44.019Z,1008.32
2019-05-12T16:44:43.841Z,1008.31
2019-05-12T16:45:41.786Z,1008.26
2019-05-12T16:46:41.769Z,1008.29
2019-05-12T16:47:41.772Z,1008.31
2019-05-12T16:48:42.248Z,1008.29
2019-05-12T16:49:44.062Z,1008.28
2019-05-12T16:50:43.724Z,1008.27
2019-05-12T16:51:43.702Z,1008.26
2019-05-12T16:52:42.825Z,1008.31
2019-05-12T16:53:43.633Z,1008.26
2019-05-12T16:54:43.815Z,1008.31
2019-05-12T16:55:46.504Z,1008.27
2019-05-12T16:56:43.370Z,1008.28
2019-05-12T16:57:47.535Z,1008.30
2019-05-12T16:58:43.375Z,1008.28
2019-05-12T16:59:41.596Z,1008.30
2019-05-12T17:00:45.185Z,1008.35
2019-05-12T17:01:43.756Z,1008.37
2019-05-12T17:02:42.283Z,1008.32
2019-05-12T17:03:41.553Z,1008.37
2019-05-12T17:04:41.522Z,1008.42
2019-05-12T17:05:41.512Z,1008.39
2019-05-12T17:06:43.262Z,1008.43
2019-05-12T17:07:43.907Z,1008.44
2019-05-12T17:08:43.694Z,1008.48
2019-05-12T17:09:43.357Z,1008.49
2019-05-12T17:10:46.990Z,1008.45
2019-05-12T17:11:46.693Z,1008.46
2019-05-12T17:12:43.688Z,1008.46
2019-05-12T17:13:47.351Z,1008.47
2019-05-12T17:14:48.091Z,1008.45
2019-05-12T17:15:43.367Z,1008.43
2019-05-12T17:16:45.124Z,1008.43
2019-05-12T17:17:41.338Z,1008.45
2019-05-12T17:18:41.326Z,1008.42
2019-05-12T17:19:43.379Z,1008.48
2019-05-12T17:20:47.002Z,1008.49
2019-05-12T17:21:41.288Z,1008.48
2019-05-12T17:22:45.776Z,1008.50
2019-05-12T17:23:41.258Z,1008.50
2019-05-12T17:24:41.274Z,1008.52
2019-05-12T17:25:41.226Z,1008.55
2019-05-12T17:26:41.235Z,1008.57
2019-05-12T17:27:41.222Z,1008.51
2019-05-12T17:28:43.474Z,1008.53
2019-05-12T17:29:43.379Z,1008.53
2019-05-12T17:30:43.535Z,1008.51
2019-05-12T17:31:41.143Z,1008.50
2019-05-12T17:32:54.899Z,1008.48
2019-05-12T17:33:41.116Z,1008.51
2019-05-12T17:34:45.843Z,1008.52